sensor_id;sensor_type;location;lat;lon;timestamp;pressure;altitude;pressure_sealevel;temperature;humidity
80566;BME280;69915;54.862;10.730;2023-10-13T00:00:40;101113.59;;;5.18;100.00
80566;BME280;69915;54.862;10.730;2023-10-13T00:03:06;101102.75;;;5.18;100.00
80566;BME280;69915;54.862;10.730;2023-10-13T00:05:40;101092.22;;;5.21;100.00
80566;BME280;69915;54.862;10.730;2023-10-13T00:08:09;101087.56;;;5.17;100.00
80566;BME280;69915;54.862;10.730;2023-10-13T00:10:35;101106.50;;;5.33;100.00
80566;BME280;69915;54.862;10.730;2023-10-13T00:13:01;101071.03;;;5.35;100.00
80566;BME280;69915;54.862;10.730;2023-10-13T00:15:46;101065.97;;;5.43;100.00
80566;BME280;69915;54.862;10.730;2023-10-13T00:18:34;101061.13;;;5.45;100.00
80566;BME280;69915;54.862;10.730;2023-10-13T00:21:01;101068.31;;;5.57;100.00
80566;BME280;69915;54.862;10.730;2023-10-13T00:23:41;101078.56;;;5.71;100.00
80566;BME280;69915;54.862;10.730;2023-10-13T00:26:25;101048.59;;;5.61;100.00
80566;BME280;69915;54.862;10.730;2023-10-13T00:28:53;101068.75;;;5.70;100.00
80566;BME280;69915;54.862;10.730;2023-10-13T00:31:39;101045.59;;;5.63;100.00
80566;BME280;69915;54.862;10.730;2023-10-13T00:34:06;101064.84;;;5.61;100.00
80566;BME280;69915;54.862;10.730;2023-10-13T00:36:37;101032.69;;;5.48;100.00
80566;BME280;69915;54.862;10.730;2023-10-13T00:39:13;101050.34;;;5.72;100.00
80566;BME280;69915;54.862;10.730;2023-10-13T00:41:42;101038.59;;;5.67;100.00
80566;BME280;69915;54.862;10.730;2023-10-13T00:44:20;101041.44;;;5.77;100.00
80566;BME280;69915;54.862;10.730;2023-10-13T00:47:03;101048.81;;;5.81;100.00
80566;BME280;69915;54.862;10.730;2023-10-13T00:49:33;101061.97;;;5.89;100.00
80566;BME280;69915;54.862;10.730;2023-10-13T00:52:01;101035.00;;;5.83;100.00
80566;BME280;69915;54.862;10.730;2023-10-13T00:54:26;101037.78;;;5.88;100.00
80566;BME280;69915;54.862;10.730;2023-10-13T00:56:53;101040.69;;;6.03;100.00
80566;BME280;69915;54.862;10.730;2023-10-13T00:59:29;101043.22;;;6.15;100.00
80566;BME280;69915;54.862;10.730;2023-10-13T01:01:59;101040.31;;;6.21;100.00
80566;BME280;69915;54.862;10.730;2023-10-13T01:04:45;101026.50;;;6.23;100.00
80566;BME280;69915;54.862;10.730;2023-10-13T01:07:12;101036.44;;;6.39;100.00
80566;BME280;69915;54.862;10.730;2023-10-13T01:09:41;101033.78;;;6.49;100.00
80566;BME280;69915;54.862;10.730;2023-10-13T01:12:13;101031.13;;;6.54;100.00
80566;BME280;69915;54.862;10.730;2023-10-13T01:14:40;101014.78;;;6.49;100.00
80566;BME280;69915;54.862;10.730;2023-10-13T01:17:05;101014.84;;;6.54;100.00
80566;BME280;69915;54.862;10.730;2023-10-13T01:19:35;101014.84;;;6.54;100.00
80566;BME280;69915;54.862;10.730;2023-10-13T01:22:04;101026.38;;;6.71;100.00
80566;BME280;69915;54.862;10.730;2023-10-13T01:24:32;100999.72;;;6.68;100.00
80566;BME280;69915;54.862;10.730;2023-10-13T01:27:00;101008.34;;;6.97;100.00
80566;BME280;69915;54.862;10.730;2023-10-13T01:29:49;101011.41;;;7.10;100.00
80566;BME280;69915;54.862;10.730;2023-10-13T01:32:21;100985.06;;;7.16;100.00
80566;BME280;69915;54.862;10.730;2023-10-13T01:34:47;100973.47;;;7.31;100.00
80566;BME280;69915;54.862;10.730;2023-10-13T01:37:14;100999.19;;;7.75;100.00
80566;BME280;69915;54.862;10.730;2023-10-13T01:39:41;100990.53;;;8.03;100.00
80566;BME280;69915;54.862;10.730;2023-10-13T01:42:07;100968.25;;;8.21;100.00
80566;BME280;69915;54.862;10.730;2023-10-13T01:44:33;100968.53;;;8.55;100.00
80566;BME280;69915;54.862;10.730;2023-10-13T01:47:02;100972.31;;;8.90;99.79
80566;BME280;69915;54.862;10.730;2023-10-13T01:49:34;100977.41;;;9.16;98.74
80566;BME280;69915;54.862;10.730;2023-10-13T01:52:18;100968.09;;;9.33;98.07
80566;BME280;69915;54.862;10.730;2023-10-13T01:54:44;100979.44;;;9.55;97.22
80566;BME280;69915;54.862;10.730;2023-10-13T01:57:13;100974.13;;;9.78;96.29
80566;BME280;69915;54.862;10.730;2023-10-13T01:59:44;100955.00;;;9.78;96.27
80566;BME280;69915;54.862;10.730;2023-10-13T02:02:10;100962.88;;;9.90;96.09
80566;BME280;69915;54.862;10.730;2023-10-13T02:04:39;100940.75;;;9.92;95.49
80566;BME280;69915;54.862;10.730;2023-10-13T02:07:17;100929.50;;;9.98;95.10
80566;BME280;69915;54.862;10.730;2023-10-13T02:09:42;100927.69;;;10.22;94.09
80566;BME280;69915;54.862;10.730;2023-10-13T02:12:09;100922.72;;;10.29;93.17
80566;BME280;69915;54.862;10.730;2023-10-13T02:14:37;100907.09;;;10.35;92.46
80566;BME280;69915;54.862;10.730;2023-10-13T02:17:04;100910.19;;;10.57;91.18
80566;BME280;69915;54.862;10.730;2023-10-13T02:19:42;100889.66;;;10.60;91.59
80566;BME280;69915;54.862;10.730;2023-10-13T02:22:11;100888.19;;;10.67;90.65
80566;BME280;69915;54.862;10.730;2023-10-13T02:24:54;100861.81;;;10.76;89.62
80566;BME280;69915;54.862;10.730;2023-10-13T02:27:26;100838.97;;;10.91;88.15
80566;BME280;69915;54.862;10.730;2023-10-13T02:29:52;100845.19;;;10.97;89.15
80566;BME280;69915;54.862;10.730;2023-10-13T02:32:24;100858.59;;;11.17;88.51
80566;BME280;69915;54.862;10.730;2023-10-13T02:34:49;100839.31;;;11.27;89.05
80566;BME280;69915;54.862;10.730;2023-10-13T02:37:15;100840.88;;;11.33;89.60
80566;BME280;69915;54.862;10.730;2023-10-13T02:39:44;100831.56;;;11.34;89.71
80566;BME280;69915;54.862;10.730;2023-10-13T02:42:10;100828.75;;;11.39;89.88
80566;BME280;69915;54.862;10.730;2023-10-13T02:44:51;100829.56;;;11.39;90.59
80566;BME280;69915;54.862;10.730;2023-10-13T02:47:21;100838.00;;;11.62;90.82
80566;BME280;69915;54.862;10.730;2023-10-13T02:49:49;100824.72;;;11.50;91.79
80566;BME280;69915;54.862;10.730;2023-10-13T02:52:14;100828.88;;;11.66;91.63
80566;BME280;69915;54.862;10.730;2023-10-13T02:54:42;100826.59;;;11.73;92.84
80566;BME280;69915;54.862;10.730;2023-10-13T02:57:17;100821.47;;;11.85;93.07
80566;BME280;69915;54.862;10.730;2023-10-13T02:59:43;100820.06;;;11.88;93.86
80566;BME280;69915;54.862;10.730;2023-10-13T03:02:13;100817.22;;;11.93;94.12
80566;BME280;69915;54.862;10.730;2023-10-13T03:04:48;100816.97;;;12.08;94.22
80566;BME280;69915;54.862;10.730;2023-10-13T03:07:13;100778.88;;;11.93;94.48
80566;BME280;69915;54.862;10.730;2023-10-13T03:09:58;100794.53;;;12.06;94.25
80566;BME280;69915;54.862;10.730;2023-10-13T03:12:26;100782.25;;;12.04;94.66
80566;BME280;69915;54.862;10.730;2023-10-13T03:14:53;100783.56;;;12.06;94.17
80566;BME280;69915;54.862;10.730;2023-10-13T03:17:22;100771.50;;;12.21;93.63
80566;BME280;69915;54.862;10.730;2023-10-13T03:19:59;100772.00;;;12.09;93.76
80566;BME280;69915;54.862;10.730;2023-10-13T03:22:25;100750.69;;;12.06;93.85
80566;BME280;69915;54.862;10.730;2023-10-13T03:24:58;100775.69;;;12.18;94.02
80566;BME280;69915;54.862;10.730;2023-10-13T03:27:31;100769.69;;;12.16;94.45
80566;BME280;69915;54.862;10.730;2023-10-13T03:30:14;100773.03;;;12.13;94.38
80566;BME280;69915;54.862;10.730;2023-10-13T03:32:41;100751.72;;;12.10;94.53
80566;BME280;69915;54.862;10.730;2023-10-13T03:35:19;100732.44;;;12.02;94.88
80566;BME280;69915;54.862;10.730;2023-10-13T03:37:56;100743.56;;;12.05;94.98
80566;BME280;69915;54.862;10.730;2023-10-13T03:40:22;100729.94;;;11.86;96.48
80566;BME280;69915;54.862;10.730;2023-10-13T03:42:56;100733.69;;;11.77;97.59
80566;BME280;69915;54.862;10.730;2023-10-13T03:45:39;100732.31;;;11.61;98.75
80566;BME280;69915;54.862;10.730;2023-10-13T03:48:06;100739.41;;;11.62;99.98
80566;BME280;69915;54.862;10.730;2023-10-13T03:50:36;100734.91;;;11.52;100.00
80566;BME280;69915;54.862;10.730;2023-10-13T03:53:06;100735.50;;;11.49;100.00
80566;BME280;69915;54.862;10.730;2023-10-13T03:55:38;100716.13;;;11.45;100.00
80566;BME280;69915;54.862;10.730;2023-10-13T03:58:04;100694.69;;;11.34;100.00
80566;BME280;69915;54.862;10.730;2023-10-13T04:00:29;100707.91;;;11.45;100.00
80566;BME280;69915;54.862;10.730;2023-10-13T04:02:57;100691.06;;;11.38;100.00
80566;BME280;69915;54.862;10.730;2023-10-13T04:05:32;100678.19;;;11.39;100.00
80566;BME280;69915;54.862;10.730;2023-10-13T04:08:10;100681.75;;;11.39;100.00
80566;BME280;69915;54.862;10.730;2023-10-13T04:10:55;100688.25;;;11.43;100.00
80566;BME280;69915;54.862;10.730;2023-10-13T04:13:21;100692.59;;;11.44;100.00
80566;BME280;69915;54.862;10.730;2023-10-13T04:16:07;100676.16;;;11.44;100.00
80566;BME280;69915;54.862;10.730;2023-10-13T04:18:49;100671.28;;;11.41;100.00
80566;BME280;69915;54.862;10.730;2023-10-13T04:21:24;100671.22;;;11.46;100.00
80566;BME280;69915;54.862;10.730;2023-10-13T04:24:06;100654.88;;;11.41;100.00
80566;BME280;69915;54.862;10.730;2023-10-13T04:26:50;100657.81;;;11.45;100.00
80566;BME280;69915;54.862;10.730;2023-10-13T04:29:35;100667.78;;;11.55;100.00
80566;BME280;69915;54.862;10.730;2023-10-13T04:32:19;100645.97;;;11.50;100.00
80566;BME280;69915;54.862;10.730;2023-10-13T04:34:58;100650.66;;;11.63;100.00
80566;BME280;69915;54.862;10.730;2023-10-13T04:37:44;100639.81;;;11.58;100.00
80566;BME280;69915;54.862;10.730;2023-10-13T04:40:20;100638.16;;;11.57;100.00
80566;BME280;69915;54.862;10.730;2023-10-13T04:42:50;100643.47;;;11.67;100.00
80566;BME280;69915;54.862;10.730;2023-10-13T04:45:22;100615.44;;;11.56;100.00
80566;BME280;69915;54.862;10.730;2023-10-13T04:48:08;100634.94;;;11.68;100.00
80566;BME280;69915;54.862;10.730;2023-10-13T04:50:49;100625.41;;;11.66;100.00
80566;BME280;69915;54.862;10.730;2023-10-13T04:53:37;100615.50;;;11.70;100.00
80566;BME280;69915;54.862;10.730;2023-10-13T04:56:23;100602.88;;;11.69;100.00
80566;BME280;69915;54.862;10.730;2023-10-13T04:59:23;100594.78;;;11.64;100.00
80566;BME280;69915;54.862;10.730;2023-10-13T05:02:01;100589.78;;;11.66;100.00
80566;BME280;69915;54.862;10.730;2023-10-13T05:04:46;100568.72;;;11.53;100.00
80566;BME280;69915;54.862;10.730;2023-10-13T05:07:30;100573.91;;;11.68;100.00
80566;BME280;69915;54.862;10.730;2023-10-13T05:10:14;100551.66;;;11.69;100.00
80566;BME280;69915;54.862;10.730;2023-10-13T05:12:58;100558.59;;;11.80;100.00
80566;BME280;69915;54.862;10.730;2023-10-13T05:15:43;100542.25;;;11.75;100.00
80566;BME280;69915;54.862;10.730;2023-10-13T05:18:27;100550.56;;;11.84;100.00
80566;BME280;69915;54.862;10.730;2023-10-13T05:21:11;100526.53;;;11.81;100.00
80566;BME280;69915;54.862;10.730;2023-10-13T05:23:55;100519.81;;;11.87;100.00
80566;BME280;69915;54.862;10.730;2023-10-13T05:26:39;100517.19;;;11.95;100.00
80566;BME280;69915;54.862;10.730;2023-10-13T05:29:23;100521.13;;;12.03;100.00
80566;BME280;69915;54.862;10.730;2023-10-13T05:32:07;100506.41;;;11.99;100.00
80566;BME280;69915;54.862;10.730;2023-10-13T05:34:51;100512.41;;;12.01;100.00
80566;BME280;69915;54.862;10.730;2023-10-13T05:37:35;100518.16;;;12.13;100.00
80566;BME280;69915;54.862;10.730;2023-10-13T05:40:19;100507.31;;;12.08;100.00
80566;BME280;69915;54.862;10.730;2023-10-13T05:43:08;100501.19;;;12.11;100.00
80566;BME280;69915;54.862;10.730;2023-10-13T05:45:52;100489.63;;;12.14;100.00
80566;BME280;69915;54.862;10.730;2023-10-13T05:48:36;100480.78;;;12.17;100.00
80566;BME280;69915;54.862;10.730;2023-10-13T05:51:20;100483.53;;;12.17;100.00
80566;BME280;69915;54.862;10.730;2023-10-13T05:54:02;100486.44;;;12.34;100.00
80566;BME280;69915;54.862;10.730;2023-10-13T05:56:42;100482.53;;;12.35;100.00
80566;BME280;69915;54.862;10.730;2023-10-13T05:59:27;100468.84;;;12.35;100.00
80566;BME280;69915;54.862;10.730;2023-10-13T06:02:13;100462.72;;;12.38;100.00
80566;BME280;69915;54.862;10.730;2023-10-13T06:04:58;100449.78;;;12.30;100.00
80566;BME280;69915;54.862;10.730;2023-10-13T06:07:41;100454.00;;;12.36;100.00
80566;BME280;69915;54.862;10.730;2023-10-13T06:10:26;100456.03;;;12.44;100.00
80566;BME280;69915;54.862;10.730;2023-10-13T06:13:09;100437.56;;;12.36;100.00
80566;BME280;69915;54.862;10.730;2023-10-13T06:15:54;100443.28;;;12.48;100.00
80566;BME280;69915;54.862;10.730;2023-10-13T06:18:38;100428.72;;;12.39;100.00
80566;BME280;69915;54.862;10.730;2023-10-13T06:21:22;100441.06;;;12.50;100.00
80566;BME280;69915;54.862;10.730;2023-10-13T06:24:07;100442.56;;;12.57;100.00
80566;BME280;69915;54.862;10.730;2023-10-13T06:26:51;100425.47;;;12.60;100.00
80566;BME280;69915;54.862;10.730;2023-10-13T06:29:35;100440.06;;;12.69;100.00
80566;BME280;69915;54.862;10.730;2023-10-13T06:32:00;100444.41;;;12.70;100.00
80566;BME280;69915;54.862;10.730;2023-10-13T06:34:27;100428.44;;;12.72;100.00
80566;BME280;69915;54.862;10.730;2023-10-13T06:37:13;100417.78;;;12.70;100.00
80566;BME280;69915;54.862;10.730;2023-10-13T06:40:03;100440.13;;;12.86;100.00
80566;BME280;69915;54.862;10.730;2023-10-13T06:42:33;100417.81;;;12.79;100.00
80566;BME280;69915;54.862;10.730;2023-10-13T06:45:08;100422.03;;;12.85;100.00
80566;BME280;69915;54.862;10.730;2023-10-13T06:47:37;100408.31;;;12.85;100.00
80566;BME280;69915;54.862;10.730;2023-10-13T06:50:12;100409.16;;;12.94;100.00
80566;BME280;69915;54.862;10.730;2023-10-13T06:53:00;100408.25;;;12.98;100.00
80566;BME280;69915;54.862;10.730;2023-10-13T06:55:27;100399.84;;;13.03;100.00
80566;BME280;69915;54.862;10.730;2023-10-13T06:57:54;100393.13;;;13.09;100.00
80566;BME280;69915;54.862;10.730;2023-10-13T07:00:25;100385.72;;;13.10;100.00
80566;BME280;69915;54.862;10.730;2023-10-13T07:02:54;100383.97;;;13.23;100.00
80566;BME280;69915;54.862;10.730;2023-10-13T07:05:34;100399.53;;;13.36;100.00
80566;BME280;69915;54.862;10.730;2023-10-13T07:08:00;100377.50;;;13.27;100.00
80566;BME280;69915;54.862;10.730;2023-10-13T07:10:28;100383.81;;;13.36;100.00
80566;BME280;69915;54.862;10.730;2023-10-13T07:12:55;100391.28;;;13.44;100.00
80566;BME280;69915;54.862;10.730;2023-10-13T07:15:25;100359.44;;;13.35;100.00
80566;BME280;69915;54.862;10.730;2023-10-13T07:17:53;100383.72;;;13.50;100.00
80566;BME280;69915;54.862;10.730;2023-10-13T07:20:25;100367.41;;;13.53;100.00
80566;BME280;69915;54.862;10.730;2023-10-13T07:22:53;100373.88;;;13.57;100.00
80566;BME280;69915;54.862;10.730;2023-10-13T07:25:32;100354.63;;;13.49;100.00
80566;BME280;69915;54.862;10.730;2023-10-13T07:28:01;100355.28;;;13.63;100.00
80566;BME280;69915;54.862;10.730;2023-10-13T07:30:29;100356.25;;;13.67;100.00
80566;BME280;69915;54.862;10.730;2023-10-13T07:33:04;100349.47;;;13.73;100.00
80566;BME280;69915;54.862;10.730;2023-10-13T07:35:30;100337.34;;;13.74;100.00
80566;BME280;69915;54.862;10.730;2023-10-13T07:38:00;100340.25;;;13.78;100.00
80566;BME280;69915;54.862;10.730;2023-10-13T07:40:26;100319.25;;;13.73;100.00
80566;BME280;69915;54.862;10.730;2023-10-13T07:42:55;100321.34;;;13.85;100.00
80566;BME280;69915;54.862;10.730;2023-10-13T07:45:29;100321.66;;;13.92;100.00
80566;BME280;69915;54.862;10.730;2023-10-13T07:48:10;100299.84;;;13.87;100.00
80566;BME280;69915;54.862;10.730;2023-10-13T07:50:57;100294.50;;;13.90;100.00
80566;BME280;69915;54.862;10.730;2023-10-13T07:53:23;100285.94;;;13.92;100.00
80566;BME280;69915;54.862;10.730;2023-10-13T07:55:50;100269.78;;;13.90;100.00
80566;BME280;69915;54.862;10.730;2023-10-13T07:58:22;100276.22;;;14.03;100.00
80566;BME280;69915;54.862;10.730;2023-10-13T08:00:54;100279.44;;;14.05;100.00
80566;BME280;69915;54.862;10.730;2023-10-13T08:03:35;100286.84;;;14.13;100.00
80566;BME280;69915;54.862;10.730;2023-10-13T08:06:15;100257.91;;;14.07;100.00
80566;BME280;69915;54.862;10.730;2023-10-13T08:08:41;100262.88;;;14.22;100.00
80566;BME280;69915;54.862;10.730;2023-10-13T08:11:16;100253.19;;;14.16;100.00
80566;BME280;69915;54.862;10.730;2023-10-13T08:13:56;100263.19;;;14.29;100.00
80566;BME280;69915;54.862;10.730;2023-10-13T08:16:31;100236.88;;;14.19;100.00
80566;BME280;69915;54.862;10.730;2023-10-13T08:19:16;100221.34;;;14.24;100.00
80566;BME280;69915;54.862;10.730;2023-10-13T08:21:43;100231.66;;;14.35;100.00
80566;BME280;69915;54.862;10.730;2023-10-13T08:24:17;100231.44;;;14.49;100.00
80566;BME280;69915;54.862;10.730;2023-10-13T08:26:51;100212.50;;;14.47;100.00
80566;BME280;69915;54.862;10.730;2023-10-13T08:29:46;100219.38;;;14.62;100.00
80566;BME280;69915;54.862;10.730;2023-10-13T08:32:25;100189.31;;;14.57;100.00
80566;BME280;69915;54.862;10.730;2023-10-13T08:34:51;100193.84;;;14.61;100.00
80566;BME280;69915;54.862;10.730;2023-10-13T08:37:20;100198.13;;;14.71;100.00
80566;BME280;69915;54.862;10.730;2023-10-13T08:39:46;100167.94;;;14.62;100.00
80566;BME280;69915;54.862;10.730;2023-10-13T08:42:37;100152.50;;;14.70;100.00
80566;BME280;69915;54.862;10.730;2023-10-13T08:47:50;100145.53;;;14.73;100.00
80566;BME280;69915;54.862;10.730;2023-10-13T08:50:43;100145.59;;;14.85;100.00
80566;BME280;69915;54.862;10.730;2023-10-13T08:53:31;100119.63;;;14.74;100.00
80566;BME280;69915;54.862;10.730;2023-10-13T08:55:59;100139.44;;;14.88;100.00
80566;BME280;69915;54.862;10.730;2023-10-13T08:58:35;100137.34;;;14.85;100.00
80566;BME280;69915;54.862;10.730;2023-10-13T09:01:27;100114.88;;;14.83;100.00
80566;BME280;69915;54.862;10.730;2023-10-13T09:03:58;100108.19;;;14.84;100.00
80566;BME280;69915;54.862;10.730;2023-10-13T09:07:02;100122.91;;;14.88;100.00
80566;BME280;69915;54.862;10.730;2023-10-13T09:12:16;100116.75;;;14.91;100.00
80566;BME280;69915;54.862;10.730;2023-10-13T09:14:55;100106.31;;;14.96;100.00
80566;BME280;69915;54.862;10.730;2023-10-13T09:17:25;100079.81;;;14.92;100.00
80566;BME280;69915;54.862;10.730;2023-10-13T09:20:08;100098.47;;;15.07;100.00
80566;BME280;69915;54.862;10.730;2023-10-13T09:22:58;100086.28;;;15.08;100.00
80566;BME280;69915;54.862;10.730;2023-10-13T09:25:36;100083.34;;;15.13;100.00
80566;BME280;69915;54.862;10.730;2023-10-13T09:28:03;100067.09;;;14.99;100.00
80566;BME280;69915;54.862;10.730;2023-10-13T09:30:47;100066.09;;;15.04;100.00
80566;BME280;69915;54.862;10.730;2023-10-13T09:33:12;100072.19;;;15.09;100.00
80566;BME280;69915;54.862;10.730;2023-10-13T09:35:44;100053.25;;;15.08;100.00
80566;BME280;69915;54.862;10.730;2023-10-13T09:38:16;100046.16;;;15.07;100.00
80566;BME280;69915;54.862;10.730;2023-10-13T09:40:43;100054.09;;;15.20;100.00
80566;BME280;69915;54.862;10.730;2023-10-13T09:43:16;100050.75;;;15.15;100.00
80566;BME280;69915;54.862;10.730;2023-10-13T09:45:46;100034.59;;;15.13;100.00
80566;BME280;69915;54.862;10.730;2023-10-13T09:48:34;100040.13;;;15.25;100.00
80566;BME280;69915;54.862;10.730;2023-10-13T09:51:04;100034.28;;;15.27;100.00
80566;BME280;69915;54.862;10.730;2023-10-13T09:53:36;100012.78;;;15.20;100.00
80566;BME280;69915;54.862;10.730;2023-10-13T09:56:47;100020.63;;;15.31;100.00
80566;BME280;69915;54.862;10.730;2023-10-13T09:59:21;100008.91;;;15.21;100.00
80566;BME280;69915;54.862;10.730;2023-10-13T10:01:48;99987.69;;;15.22;100.00
80566;BME280;69915;54.862;10.730;2023-10-13T10:04:22;99993.88;;;15.31;100.00
80566;BME280;69915;54.862;10.730;2023-10-13T10:06:55;99995.03;;;15.30;100.00
80566;BME280;69915;54.862;10.730;2023-10-13T10:09:32;99985.16;;;15.29;100.00
80566;BME280;69915;54.862;10.730;2023-10-13T10:17:38;99949.94;;;15.22;100.00
80566;BME280;69915;54.862;10.730;2023-10-13T10:20:05;99956.47;;;15.30;100.00
80566;BME280;69915;54.862;10.730;2023-10-13T10:22:41;99949.81;;;15.31;100.00
80566;BME280;69915;54.862;10.730;2023-10-13T10:25:13;99950.28;;;15.33;100.00
80566;BME280;69915;54.862;10.730;2023-10-13T10:28:01;99915.59;;;15.32;100.00
80566;BME280;69915;54.862;10.730;2023-10-13T10:30:32;99915.59;;;15.32;100.00
80566;BME280;69915;54.862;10.730;2023-10-13T10:32:59;99898.19;;;15.28;100.00
80566;BME280;69915;54.862;10.730;2023-10-13T10:35:27;99897.72;;;15.26;100.00
80566;BME280;69915;54.862;10.730;2023-10-13T10:38:07;99895.06;;;15.30;100.00
80566;BME280;69915;54.862;10.730;2023-10-13T10:40:49;99883.25;;;15.29;100.00
80566;BME280;69915;54.862;10.730;2023-10-13T10:45:54;99884.97;;;15.34;100.00
80566;BME280;69915;54.862;10.730;2023-10-13T10:48:26;99895.78;;;15.51;100.00
80566;BME280;69915;54.862;10.730;2023-10-13T10:51:03;99883.97;;;15.50;100.00
80566;BME280;69915;54.862;10.730;2023-10-13T10:53:34;99870.88;;;15.59;100.00
80566;BME280;69915;54.862;10.730;2023-10-13T10:56:10;99865.81;;;15.61;100.00
80566;BME280;69915;54.862;10.730;2023-10-13T10:58:55;99837.81;;;15.59;100.00
80566;BME280;69915;54.862;10.730;2023-10-13T11:01:25;99819.41;;;15.63;100.00
80566;BME280;69915;54.862;10.730;2023-10-13T11:04:04;99838.22;;;15.73;100.00
80566;BME280;69915;54.862;10.730;2023-10-13T11:06:46;99825.81;;;15.79;100.00
80566;BME280;69915;54.862;10.730;2023-10-13T11:09:12;99809.75;;;15.69;100.00
80566;BME280;69915;54.862;10.730;2023-10-13T11:14:31;99805.81;;;15.83;100.00
80566;BME280;69915;54.862;10.730;2023-10-13T11:16:58;99774.84;;;15.73;100.00
80566;BME280;69915;54.862;10.730;2023-10-13T11:19:34;99776.94;;;15.92;100.00
80566;BME280;69915;54.862;10.730;2023-10-13T11:22:12;99755.97;;;16.03;100.00
80566;BME280;69915;54.862;10.730;2023-10-13T11:25:01;99751.72;;;16.06;100.00
80566;BME280;69915;54.862;10.730;2023-10-13T11:27:41;99741.59;;;16.10;100.00
80566;BME280;69915;54.862;10.730;2023-10-13T11:30:13;99713.13;;;16.06;100.00
80566;BME280;69915;54.862;10.730;2023-10-13T11:32:43;99710.44;;;15.94;100.00
80566;BME280;69915;54.862;10.730;2023-10-13T11:35:09;99725.28;;;15.89;100.00
80566;BME280;69915;54.862;10.730;2023-10-13T11:37:57;99706.84;;;15.77;100.00
80566;BME280;69915;54.862;10.730;2023-10-13T11:40:37;99702.06;;;15.74;100.00
80566;BME280;69915;54.862;10.730;2023-10-13T11:43:09;99697.59;;;15.70;100.00
80566;BME280;69915;54.862;10.730;2023-10-13T11:45:41;99697.78;;;15.77;100.00
80566;BME280;69915;54.862;10.730;2023-10-13T11:48:29;99704.09;;;15.77;100.00
80566;BME280;69915;54.862;10.730;2023-10-13T11:51:05;99695.44;;;15.63;100.00
80566;BME280;69915;54.862;10.730;2023-10-13T11:53:37;99702.34;;;15.57;100.00
80566;BME280;69915;54.862;10.730;2023-10-13T11:56:04;99687.69;;;15.53;100.00
80566;BME280;69915;54.862;10.730;2023-10-13T11:58:37;99697.75;;;15.61;100.00
80566;BME280;69915;54.862;10.730;2023-10-13T12:01:04;99684.41;;;15.63;100.00
80566;BME280;69915;54.862;10.730;2023-10-13T12:03:48;99688.34;;;15.62;100.00
80566;BME280;69915;54.862;10.730;2023-10-13T12:06:34;99683.69;;;15.66;100.00
80566;BME280;69915;54.862;10.730;2023-10-13T12:11:43;99663.34;;;15.55;100.00
80566;BME280;69915;54.862;10.730;2023-10-13T12:14:14;99675.69;;;15.61;100.00
80566;BME280;69915;54.862;10.730;2023-10-13T12:16:47;99636.81;;;15.51;100.00
80566;BME280;69915;54.862;10.730;2023-10-13T12:19:25;99644.97;;;15.59;100.00
80566;BME280;69915;54.862;10.730;2023-10-13T12:21:55;99629.78;;;15.65;100.00
80566;BME280;69915;54.862;10.730;2023-10-13T12:24:28;99615.00;;;15.58;100.00
80566;BME280;69915;54.862;10.730;2023-10-13T12:27:03;99601.59;;;15.56;100.00
80566;BME280;69915;54.862;10.730;2023-10-13T12:29:46;99608.69;;;15.73;100.00
80566;BME280;69915;54.862;10.730;2023-10-13T12:32:15;99599.38;;;15.77;100.00
80566;BME280;69915;54.862;10.730;2023-10-13T12:34:47;99589.69;;;15.84;100.00
80566;BME280;69915;54.862;10.730;2023-10-13T12:37:27;99561.03;;;15.72;100.00
80566;BME280;69915;54.862;10.730;2023-10-13T12:40:02;99575.63;;;15.89;100.00
80566;BME280;69915;54.862;10.730;2023-10-13T12:42:47;99580.44;;;15.92;100.00
80566;BME280;69915;54.862;10.730;2023-10-13T12:45:31;99550.53;;;15.94;100.00
80566;BME280;69915;54.862;10.730;2023-10-13T12:48:15;99537.94;;;15.93;100.00
80566;BME280;69915;54.862;10.730;2023-10-13T12:51:02;99562.06;;;16.15;100.00
80566;BME280;69915;54.862;10.730;2023-10-13T12:53:55;99555.84;;;16.18;100.00
80566;BME280;69915;54.862;10.730;2023-10-13T12:56:29;99529.72;;;16.12;100.00
80566;BME280;69915;54.862;10.730;2023-10-13T12:58:55;99538.97;;;16.19;100.00
80566;BME280;69915;54.862;10.730;2023-10-13T13:01:22;99547.84;;;16.28;100.00
80566;BME280;69915;54.862;10.730;2023-10-13T13:03:49;99535.56;;;16.26;100.00
80566;BME280;69915;54.862;10.730;2023-10-13T13:06:19;99544.44;;;16.35;100.00
80566;BME280;69915;54.862;10.730;2023-10-13T13:08:57;99527.25;;;16.42;100.00
80566;BME280;69915;54.862;10.730;2023-10-13T13:11:24;99544.66;;;16.46;100.00
80566;BME280;69915;54.862;10.730;2023-10-13T13:13:50;99529.78;;;16.50;100.00
80566;BME280;69915;54.862;10.730;2023-10-13T13:16:16;99501.59;;;16.57;100.00
80566;BME280;69915;54.862;10.730;2023-10-13T13:18:52;99505.34;;;16.68;100.00
80566;BME280;69915;54.862;10.730;2023-10-13T13:21:20;99513.16;;;16.81;100.00
80566;BME280;69915;54.862;10.730;2023-10-13T13:23:48;99511.97;;;16.82;100.00
80566;BME280;69915;54.862;10.730;2023-10-13T13:26:14;99498.03;;;16.75;100.00
80566;BME280;69915;54.862;10.730;2023-10-13T13:28:44;99491.06;;;16.81;100.00
80566;BME280;69915;54.862;10.730;2023-10-13T13:31:09;99483.28;;;16.87;100.00
80566;BME280;69915;54.862;10.730;2023-10-13T13:33:38;99499.22;;;16.97;100.00